sensor_id;sensor_type;location;lat;lon;timestamp;P1;durP1;ratioP1;P2;durP2;ratioP2
34296;SDS011;20564;42.902;25.336;2023-01-28T00:01:25;0.95;;;0.30;;
34296;SDS011;20564;42.902;25.336;2023-01-28T00:03:52;0.40;;;0.22;;
34296;SDS011;20564;42.902;25.336;2023-01-28T00:06:19;0.65;;;0.22;;
34296;SDS011;20564;42.902;25.336;2023-01-28T00:08:46;0.95;;;0.20;;
34296;SDS011;20564;42.902;25.336;2023-01-28T00:11:13;1.92;;;0.50;;
34296;SDS011;20564;42.902;25.336;2023-01-28T00:13:40;0.32;;;0.20;;
34296;SDS011;20564;42.902;25.336;2023-01-28T00:16:07;1.08;;;0.20;;
34296;SDS011;20564;42.902;25.336;2023-01-28T00:18:35;0.40;;;0.20;;
34296;SDS011;20564;42.902;25.336;2023-01-28T00:21:06;2.50;;;0.82;;
34296;SDS011;20564;42.902;25.336;2023-01-28T00:23:36;1.55;;;0.32;;
34296;SDS011;20564;42.902;25.336;2023-01-28T00:26:06;0.70;;;0.28;;
34296;SDS011;20564;42.902;25.336;2023-01-28T00:28:35;0.35;;;0.20;;
34296;SDS011;20564;42.902;25.336;2023-01-28T00:31:36;0.77;;;0.47;;
34296;SDS011;20564;42.902;25.336;2023-01-28T00:33:56;1.83;;;0.43;;
34296;SDS011;20564;42.902;25.336;2023-01-28T00:36:23;0.57;;;0.50;;
34296;SDS011;20564;42.902;25.336;2023-01-28T00:43:49;1.05;;;0.20;;
34296;SDS011;20564;42.902;25.336;2023-01-28T00:46:17;0.45;;;0.20;;
34296;SDS011;20564;42.902;25.336;2023-01-28T00:51:13;0.30;;;0.05;;
34296;SDS011;20564;42.902;25.336;2023-01-28T00:53:42;0.20;;;0.10;;
34296;SDS011;20564;42.902;25.336;2023-01-28T00:56:11;0.22;;;0.20;;
34296;SDS011;20564;42.902;25.336;2023-01-28T00:58:39;0.75;;;0.10;;
34296;SDS011;20564;42.902;25.336;2023-01-28T01:01:25;1.00;;;0.57;;
34296;SDS011;20564;42.902;25.336;2023-01-28T01:03:53;0.50;;;0.32;;
34296;SDS011;20564;42.902;25.336;2023-01-28T01:06:35;1.00;;;0.30;;
34296;SDS011;20564;42.902;25.336;2023-01-28T01:09:04;1.00;;;0.20;;
34296;SDS011;20564;42.902;25.336;2023-01-28T01:11:34;1.52;;;0.25;;
34296;SDS011;20564;42.902;25.336;2023-01-28T01:14:01;0.55;;;0.32;;
34296;SDS011;20564;42.902;25.336;2023-01-28T01:16:30;1.00;;;0.70;;
34296;SDS011;20564;42.902;25.336;2023-01-28T01:18:59;0.38;;;0.20;;
34296;SDS011;20564;42.902;25.336;2023-01-28T01:23:54;2.22;;;0.70;;
34296;SDS011;20564;42.902;25.336;2023-01-28T01:26:22;1.23;;;0.40;;
34296;SDS011;20564;42.902;25.336;2023-01-28T01:28:51;1.02;;;0.30;;
34296;SDS011;20564;42.902;25.336;2023-01-28T01:31:19;1.23;;;0.30;;
34296;SDS011;20564;42.902;25.336;2023-01-28T01:33:48;0.50;;;0.30;;
34296;SDS011;20564;42.902;25.336;2023-01-28T01:36:16;0.20;;;0.20;;
34296;SDS011;20564;42.902;25.336;2023-01-28T01:38:47;0.57;;;0.17;;
34296;SDS011;20564;42.902;25.336;2023-01-28T01:41:23;0.20;;;0.20;;
34296;SDS011;20564;42.902;25.336;2023-01-28T01:43:59;0.73;;;0.38;;
34296;SDS011;20564;42.902;25.336;2023-01-28T01:46:37;0.30;;;0.13;;
34296;SDS011;20564;42.902;25.336;2023-01-28T01:52:19;0.70;;;0.20;;
34296;SDS011;20564;42.902;25.336;2023-01-28T01:55:28;1.95;;;0.40;;
34296;SDS011;20564;42.902;25.336;2023-01-28T01:58:31;0.32;;;0.22;;
34296;SDS011;20564;42.902;25.336;2023-01-28T02:01:03;0.10;;;0.10;;
34296;SDS011;20564;42.902;25.336;2023-01-28T02:06:43;0.22;;;0.15;;
34296;SDS011;20564;42.902;25.336;2023-01-28T02:09:23;0.03;;;0.00;;
34296;SDS011;20564;42.902;25.336;2023-01-28T02:12:20;0.28;;;0.20;;
34296;SDS011;20564;42.902;25.336;2023-01-28T02:15:04;0.30;;;0.30;;
34296;SDS011;20564;42.902;25.336;2023-01-28T02:17:58;1.08;;;0.30;;
34296;SDS011;20564;42.902;25.336;2023-01-28T02:20:52;0.95;;;0.52;;
34296;SDS011;20564;42.902;25.336;2023-01-28T02:33:04;0.68;;;0.13;;
34296;SDS011;20564;42.902;25.336;2023-01-28T02:35:53;0.10;;;0.10;;
34296;SDS011;20564;42.902;25.336;2023-01-28T02:38:40;0.38;;;0.15;;
34296;SDS011;20564;42.902;25.336;2023-01-28T02:41:20;0.70;;;0.20;;
34296;SDS011;20564;42.902;25.336;2023-01-28T02:44:01;0.30;;;0.08;;
34296;SDS011;20564;42.902;25.336;2023-01-28T02:46:36;0.30;;;0.10;;
34296;SDS011;20564;42.902;25.336;2023-01-28T02:49:35;0.75;;;0.20;;
34296;SDS011;20564;42.902;25.336;2023-01-28T02:52:31;1.13;;;0.20;;
34296;SDS011;20564;42.902;25.336;2023-01-28T03:00:42;0.10;;;0.10;;
34296;SDS011;20564;42.902;25.336;2023-01-28T03:06:07;0.63;;;0.15;;
34296;SDS011;20564;42.902;25.336;2023-01-28T03:08:38;0.50;;;0.43;;
34296;SDS011;20564;42.902;25.336;2023-01-28T03:11:31;0.95;;;0.32;;
34296;SDS011;20564;42.902;25.336;2023-01-28T03:14:20;0.55;;;0.30;;
34296;SDS011;20564;42.902;25.336;2023-01-28T03:17:11;0.88;;;0.60;;
34296;SDS011;20564;42.902;25.336;2023-01-28T03:20:02;1.52;;;0.73;;
34296;SDS011;20564;42.902;25.336;2023-01-28T03:22:59;1.02;;;0.75;;
34296;SDS011;20564;42.902;25.336;2023-01-28T03:25:50;1.70;;;1.00;;
34296;SDS011;20564;42.902;25.336;2023-01-28T03:28:43;2.75;;;0.73;;
34296;SDS011;20564;42.902;25.336;2023-01-28T03:31:33;0.93;;;0.40;;
34296;SDS011;20564;42.902;25.336;2023-01-28T03:34:21;1.38;;;0.50;;
34296;SDS011;20564;42.902;25.336;2023-01-28T03:37:11;1.13;;;0.38;;
34296;SDS011;20564;42.902;25.336;2023-01-28T03:39:50;1.85;;;0.52;;
34296;SDS011;20564;42.902;25.336;2023-01-28T03:42:19;0.88;;;0.45;;
34296;SDS011;20564;42.902;25.336;2023-01-28T03:45:00;1.30;;;0.60;;
34296;SDS011;20564;42.902;25.336;2023-01-28T03:47:41;0.68;;;0.20;;
34296;SDS011;20564;42.902;25.336;2023-01-28T03:50:14;1.48;;;0.80;;
34296;SDS011;20564;42.902;25.336;2023-01-28T03:52:43;0.75;;;0.22;;
34296;SDS011;20564;42.902;25.336;2023-01-28T03:55:16;0.63;;;0.40;;
34296;SDS011;20564;42.902;25.336;2023-01-28T03:57:55;1.63;;;0.50;;
34296;SDS011;20564;42.902;25.336;2023-01-28T04:00:23;1.67;;;0.65;;
34296;SDS011;20564;42.902;25.336;2023-01-28T04:02:54;2.42;;;0.88;;
34296;SDS011;20564;42.902;25.336;2023-01-28T04:05:25;1.10;;;0.40;;
34296;SDS011;20564;42.902;25.336;2023-01-28T04:08:12;2.40;;;0.45;;
34296;SDS011;20564;42.902;25.336;2023-01-28T04:10:55;1.08;;;0.30;;
34296;SDS011;20564;42.902;25.336;2023-01-28T04:13:31;2.58;;;0.40;;
34296;SDS011;20564;42.902;25.336;2023-01-28T04:16:02;0.70;;;0.50;;
34296;SDS011;20564;42.902;25.336;2023-01-28T04:18:31;0.70;;;0.57;;
34296;SDS011;20564;42.902;25.336;2023-01-28T04:20:59;0.57;;;0.40;;
34296;SDS011;20564;42.902;25.336;2023-01-28T04:23:27;0.88;;;0.52;;
34296;SDS011;20564;42.902;25.336;2023-01-28T04:25:58;0.93;;;0.40;;
34296;SDS011;20564;42.902;25.336;2023-01-28T04:28:46;0.85;;;0.50;;
34296;SDS011;20564;42.902;25.336;2023-01-28T04:31:22;2.05;;;0.40;;
34296;SDS011;20564;42.902;25.336;2023-01-28T04:34:05;2.33;;;0.93;;
34296;SDS011;20564;42.902;25.336;2023-01-28T04:36:33;0.50;;;0.35;;
34296;SDS011;20564;42.902;25.336;2023-01-28T04:39:04;1.23;;;0.45;;
34296;SDS011;20564;42.902;25.336;2023-01-28T04:41:33;0.10;;;0.10;;
34296;SDS011;20564;42.902;25.336;2023-01-28T04:44:02;0.35;;;0.30;;
34296;SDS011;20564;42.902;25.336;2023-01-28T04:46:40;1.08;;;0.38;;
34296;SDS011;20564;42.902;25.336;2023-01-28T04:49:08;4.07;;;1.23;;
34296;SDS011;20564;42.902;25.336;2023-01-28T04:51:39;0.73;;;0.43;;
34296;SDS011;20564;42.902;25.336;2023-01-28T04:56:39;0.73;;;0.47;;
34296;SDS011;20564;42.902;25.336;2023-01-28T04:59:11;3.15;;;1.20;;
34296;SDS011;20564;42.902;25.336;2023-01-28T05:01:42;1.88;;;0.60;;
34296;SDS011;20564;42.902;25.336;2023-01-28T05:04:09;0.55;;;0.20;;
34296;SDS011;20564;42.902;25.336;2023-01-28T05:06:39;2.88;;;0.50;;
34296;SDS011;20564;42.902;25.336;2023-01-28T05:09:14;0.93;;;0.40;;
34296;SDS011;20564;42.902;25.336;2023-01-28T05:11:41;0.93;;;0.55;;
34296;SDS011;20564;42.902;25.336;2023-01-28T05:14:08;0.95;;;0.30;;
34296;SDS011;20564;42.902;25.336;2023-01-28T05:16:35;0.93;;;0.40;;
34296;SDS011;20564;42.902;25.336;2023-01-28T05:19:02;0.98;;;0.45;;
34296;SDS011;20564;42.902;25.336;2023-01-28T05:21:29;1.10;;;0.38;;
34296;SDS011;20564;42.902;25.336;2023-01-28T05:23:56;0.17;;;0.13;;
34296;SDS011;20564;42.902;25.336;2023-01-28T05:26:22;1.33;;;0.57;;
34296;SDS011;20564;42.902;25.336;2023-01-28T05:28:49;0.98;;;0.30;;
34296;SDS011;20564;42.902;25.336;2023-01-28T05:31:17;1.45;;;0.60;;
34296;SDS011;20564;42.902;25.336;2023-01-28T05:33:44;2.53;;;1.35;;
34296;SDS011;20564;42.902;25.336;2023-01-28T05:36:10;0.65;;;0.43;;
34296;SDS011;20564;42.902;25.336;2023-01-28T05:38:37;1.33;;;0.32;;
34296;SDS011;20564;42.902;25.336;2023-01-28T05:41:05;1.38;;;0.50;;
34296;SDS011;20564;42.902;25.336;2023-01-28T05:43:32;0.80;;;0.30;;
34296;SDS011;20564;42.902;25.336;2023-01-28T05:46:01;1.27;;;0.70;;
34296;SDS011;20564;42.902;25.336;2023-01-28T05:48:29;0.52;;;0.47;;
34296;SDS011;20564;42.902;25.336;2023-01-28T05:50:58;0.98;;;0.50;;
34296;SDS011;20564;42.902;25.336;2023-01-28T05:53:25;2.92;;;0.40;;
34296;SDS011;20564;42.902;25.336;2023-01-28T05:55:53;1.95;;;0.63;;
34296;SDS011;20564;42.902;25.336;2023-01-28T05:58:20;1.67;;;0.40;;
34296;SDS011;20564;42.902;25.336;2023-01-28T06:00:47;1.17;;;0.67;;
34296;SDS011;20564;42.902;25.336;2023-01-28T06:03:14;0.85;;;0.40;;
34296;SDS011;20564;42.902;25.336;2023-01-28T06:05:42;1.27;;;0.50;;
34296;SDS011;20564;42.902;25.336;2023-01-28T06:08:13;1.27;;;0.60;;
34296;SDS011;20564;42.902;25.336;2023-01-28T06:10:40;2.97;;;1.17;;
34296;SDS011;20564;42.902;25.336;2023-01-28T06:13:07;1.33;;;0.40;;
34296;SDS011;20564;42.902;25.336;2023-01-28T06:15:35;1.85;;;0.60;;
34296;SDS011;20564;42.902;25.336;2023-01-28T06:18:06;4.30;;;1.10;;
34296;SDS011;20564;42.902;25.336;2023-01-28T06:20:34;2.13;;;1.33;;
34296;SDS011;20564;42.902;25.336;2023-01-28T06:23:01;4.47;;;1.40;;
34296;SDS011;20564;42.902;25.336;2023-01-28T06:25:32;5.25;;;1.92;;
34296;SDS011;20564;42.902;25.336;2023-01-28T06:27:59;0.77;;;0.40;;
34296;SDS011;20564;42.902;25.336;2023-01-28T06:30:29;0.90;;;0.57;;
34296;SDS011;20564;42.902;25.336;2023-01-28T06:32:57;0.90;;;0.63;;
34296;SDS011;20564;42.902;25.336;2023-01-28T06:35:24;2.80;;;0.57;;
34296;SDS011;20564;42.902;25.336;2023-01-28T06:37:51;0.50;;;0.30;;
34296;SDS011;20564;42.902;25.336;2023-01-28T06:40:19;4.63;;;1.13;;
34296;SDS011;20564;42.902;25.336;2023-01-28T06:42:48;1.20;;;0.40;;
34296;SDS011;20564;42.902;25.336;2023-01-28T06:45:15;1.92;;;0.90;;
34296;SDS011;20564;42.902;25.336;2023-01-28T06:47:41;2.45;;;0.70;;
34296;SDS011;20564;42.902;25.336;2023-01-28T06:50:08;1.45;;;0.52;;
34296;SDS011;20564;42.902;25.336;2023-01-28T06:52:36;3.15;;;0.88;;
34296;SDS011;20564;42.902;25.336;2023-01-28T06:55:02;2.42;;;0.77;;
34296;SDS011;20564;42.902;25.336;2023-01-28T06:57:30;1.95;;;0.68;;
34296;SDS011;20564;42.902;25.336;2023-01-28T06:59:56;4.35;;;1.25;;
34296;SDS011;20564;42.902;25.336;2023-01-28T07:02:23;2.15;;;0.98;;
34296;SDS011;20564;42.902;25.336;2023-01-28T07:04:52;5.13;;;1.55;;
34296;SDS011;20564;42.902;25.336;2023-01-28T07:07:20;2.85;;;1.20;;
34296;SDS011;20564;42.902;25.336;2023-01-28T07:09:47;1.23;;;0.52;;
34296;SDS011;20564;42.902;25.336;2023-01-28T07:12:13;2.22;;;1.05;;
34296;SDS011;20564;42.902;25.336;2023-01-28T07:14:41;2.50;;;0.73;;
34296;SDS011;20564;42.902;25.336;2023-01-28T07:17:07;11.10;;;5.00;;
34296;SDS011;20564;42.902;25.336;2023-01-28T07:19:35;16.65;;;5.68;;
34296;SDS011;20564;42.902;25.336;2023-01-28T07:22:02;18.93;;;6.43;;
34296;SDS011;20564;42.902;25.336;2023-01-28T07:24:29;6.10;;;2.13;;
34296;SDS011;20564;42.902;25.336;2023-01-28T07:26:56;16.55;;;7.38;;
34296;SDS011;20564;42.902;25.336;2023-01-28T07:29:23;9.05;;;4.75;;
34296;SDS011;20564;42.902;25.336;2023-01-28T07:31:50;7.50;;;2.47;;
34296;SDS011;20564;42.902;25.336;2023-01-28T07:34:17;6.82;;;2.80;;
34296;SDS011;20564;42.902;25.336;2023-01-28T07:36:44;7.63;;;3.13;;
34296;SDS011;20564;42.902;25.336;2023-01-28T07:39:11;5.87;;;2.00;;
34296;SDS011;20564;42.902;25.336;2023-01-28T07:41:37;11.88;;;3.90;;
34296;SDS011;20564;42.902;25.336;2023-01-28T07:44:04;10.55;;;4.18;;
34296;SDS011;20564;42.902;25.336;2023-01-28T07:46:31;7.65;;;2.38;;
34296;SDS011;20564;42.902;25.336;2023-01-28T07:48:58;12.10;;;4.57;;
34296;SDS011;20564;42.902;25.336;2023-01-28T07:51:26;10.48;;;3.88;;
34296;SDS011;20564;42.902;25.336;2023-01-28T07:53:53;8.00;;;3.50;;
34296;SDS011;20564;42.902;25.336;2023-01-28T07:56:20;7.22;;;2.80;;
34296;SDS011;20564;42.902;25.336;2023-01-28T07:58:48;3.20;;;1.10;;
34296;SDS011;20564;42.902;25.336;2023-01-28T08:01:15;10.13;;;2.85;;
34296;SDS011;20564;42.902;25.336;2023-01-28T08:03:43;8.55;;;2.55;;
34296;SDS011;20564;42.902;25.336;2023-01-28T08:06:10;4.93;;;1.67;;
34296;SDS011;20564;42.902;25.336;2023-01-28T08:08:37;2.67;;;1.23;;
34296;SDS011;20564;42.902;25.336;2023-01-28T08:11:08;7.07;;;1.92;;
34296;SDS011;20564;42.902;25.336;2023-01-28T08:13:36;3.90;;;1.95;;
34296;SDS011;20564;42.902;25.336;2023-01-28T08:16:03;7.78;;;2.08;;
34296;SDS011;20564;42.902;25.336;2023-01-28T08:18:30;5.97;;;3.22;;
34296;SDS011;20564;42.902;25.336;2023-01-28T08:20:57;4.47;;;2.10;;
34296;SDS011;20564;42.902;25.336;2023-01-28T08:23:25;2.92;;;1.67;;
34296;SDS011;20564;42.902;25.336;2023-01-28T08:25:52;4.10;;;1.40;;
34296;SDS011;20564;42.902;25.336;2023-01-28T08:28:21;6.18;;;2.35;;
34296;SDS011;20564;42.902;25.336;2023-01-28T08:30:48;6.78;;;2.15;;
34296;SDS011;20564;42.902;25.336;2023-01-28T08:33:16;4.80;;;1.45;;
34296;SDS011;20564;42.902;25.336;2023-01-28T08:35:44;7.18;;;3.03;;
34296;SDS011;20564;42.902;25.336;2023-01-28T08:38:12;8.23;;;3.08;;
34296;SDS011;20564;42.902;25.336;2023-01-28T08:40:40;14.57;;;7.05;;
34296;SDS011;20564;42.902;25.336;2023-01-28T08:43:07;15.10;;;6.93;;
34296;SDS011;20564;42.902;25.336;2023-01-28T08:45:34;12.73;;;4.27;;
34296;SDS011;20564;42.902;25.336;2023-01-28T08:48:04;20.47;;;8.90;;
34296;SDS011;20564;42.902;25.336;2023-01-28T08:50:33;16.60;;;7.57;;
34296;SDS011;20564;42.902;25.336;2023-01-28T08:53:04;12.02;;;4.30;;
34296;SDS011;20564;42.902;25.336;2023-01-28T08:55:34;6.95;;;2.28;;
34296;SDS011;20564;42.902;25.336;2023-01-28T08:58:01;6.50;;;1.67;;
34296;SDS011;20564;42.902;25.336;2023-01-28T09:00:30;3.55;;;1.48;;
34296;SDS011;20564;42.902;25.336;2023-01-28T09:05:25;3.13;;;1.08;;
34296;SDS011;20564;42.902;25.336;2023-01-28T09:07:52;6.45;;;2.25;;
34296;SDS011;20564;42.902;25.336;2023-01-28T09:10:19;4.65;;;2.38;;
34296;SDS011;20564;42.902;25.336;2023-01-28T09:12:47;6.72;;;2.55;;
34296;SDS011;20564;42.902;25.336;2023-01-28T09:15:14;5.27;;;2.27;;
34296;SDS011;20564;42.902;25.336;2023-01-28T09:17:41;3.75;;;1.65;;
34296;SDS011;20564;42.902;25.336;2023-01-28T09:20:08;3.92;;;1.48;;
34296;SDS011;20564;42.902;25.336;2023-01-28T09:22:35;7.18;;;3.13;;
34296;SDS011;20564;42.902;25.336;2023-01-28T09:25:03;4.30;;;2.25;;
34296;SDS011;20564;42.902;25.336;2023-01-28T09:27:30;10.97;;;5.70;;
34296;SDS011;20564;42.902;25.336;2023-01-28T09:29:57;9.38;;;3.20;;
34296;SDS011;20564;42.902;25.336;2023-01-28T09:32:24;8.80;;;3.53;;
34296;SDS011;20564;42.902;25.336;2023-01-28T09:34:51;6.95;;;2.60;;
34296;SDS011;20564;42.902;25.336;2023-01-28T09:37:17;8.07;;;3.90;;
34296;SDS011;20564;42.902;25.336;2023-01-28T09:39:44;17.63;;;3.97;;
34296;SDS011;20564;42.902;25.336;2023-01-28T09:45:15;5.18;;;2.50;;
34296;SDS011;20564;42.902;25.336;2023-01-28T09:47:58;8.50;;;3.40;;
34296;SDS011;20564;42.902;25.336;2023-01-28T09:50:35;6.50;;;3.22;;
34296;SDS011;20564;42.902;25.336;2023-01-28T09:53:06;6.88;;;2.55;;
34296;SDS011;20564;42.902;25.336;2023-01-28T09:55:40;6.13;;;2.00;;
34296;SDS011;20564;42.902;25.336;2023-01-28T09:58:10;9.00;;;2.83;;
34296;SDS011;20564;42.902;25.336;2023-01-28T10:06:12;9.90;;;3.55;;
34296;SDS011;20564;42.902;25.336;2023-01-28T10:11:39;6.72;;;2.05;;
34296;SDS011;20564;42.902;25.336;2023-01-28T10:14:27;6.93;;;2.28;;
34296;SDS011;20564;42.902;25.336;2023-01-28T10:19:31;8.18;;;2.53;;
34296;SDS011;20564;42.902;25.336;2023-01-28T10:22:06;5.88;;;2.53;;
34296;SDS011;20564;42.902;25.336;2023-01-28T10:24:44;8.40;;;2.65;;
34296;SDS011;20564;42.902;25.336;2023-01-28T10:27:20;6.28;;;2.13;;
34296;SDS011;20564;42.902;25.336;2023-01-28T10:29:49;10.18;;;2.60;;
34296;SDS011;20564;42.902;25.336;2023-01-28T10:34:57;3.55;;;1.70;;
34296;SDS011;20564;42.902;25.336;2023-01-28T10:37:30;6.05;;;1.98;;
34296;SDS011;20564;42.902;25.336;2023-01-28T10:40:01;6.53;;;2.85;;
34296;SDS011;20564;42.902;25.336;2023-01-28T10:42:34;4.43;;;1.20;;
34296;SDS011;20564;42.902;25.336;2023-01-28T10:47:43;7.32;;;2.72;;
34296;SDS011;20564;42.902;25.336;2023-01-28T10:50:27;9.90;;;3.05;;
34296;SDS011;20564;42.902;25.336;2023-01-28T10:52:57;7.97;;;3.58;;
34296;SDS011;20564;42.902;25.336;2023-01-28T10:58:04;4.95;;;2.20;;
34296;SDS011;20564;42.902;25.336;2023-01-28T11:00:33;5.18;;;2.00;;
34296;SDS011;20564;42.902;25.336;2023-01-28T11:03:02;6.22;;;2.15;;
34296;SDS011;20564;42.902;25.336;2023-01-28T11:05:30;6.55;;;2.17;;
34296;SDS011;20564;42.902;25.336;2023-01-28T11:08:14;3.25;;;1.23;;
34296;SDS011;20564;42.902;25.336;2023-01-28T11:10:43;3.00;;;1.58;;
34296;SDS011;20564;42.902;25.336;2023-01-28T11:13:17;6.85;;;2.20;;
34296;SDS011;20564;42.902;25.336;2023-01-28T11:18:17;3.72;;;2.20;;
34296;SDS011;20564;42.902;25.336;2023-01-28T11:20:52;7.40;;;2.60;;
34296;SDS011;20564;42.902;25.336;2023-01-28T11:23:27;3.45;;;1.65;;
34296;SDS011;20564;42.902;25.336;2023-01-28T11:26:04;1.77;;;1.15;;
34296;SDS011;20564;42.902;25.336;2023-01-28T11:28:34;1.63;;;0.80;;
34296;SDS011;20564;42.902;25.336;2023-01-28T11:31:06;2.13;;;1.00;;
34296;SDS011;20564;42.902;25.336;2023-01-28T11:33:36;5.13;;;0.98;;
34296;SDS011;20564;42.902;25.336;2023-01-28T11:36:22;1.65;;;0.70;;
34296;SDS011;20564;42.902;25.336;2023-01-28T11:38:57;2.25;;;0.70;;
34296;SDS011;20564;42.902;25.336;2023-01-28T11:41:31;1.83;;;1.02;;
34296;SDS011;20564;42.902;25.336;2023-01-28T11:44:09;4.20;;;1.10;;
34296;SDS011;20564;42.902;25.336;2023-01-28T11:55:48;17.17;;;2.13;;
34296;SDS011;20564;42.902;25.336;2023-01-28T12:06:57;3.53;;;1.50;;
34296;SDS011;20564;42.902;25.336;2023-01-28T12:09:56;4.45;;;1.08;;
34296;SDS011;20564;42.902;25.336;2023-01-28T12:12:41;3.10;;;0.80;;
34296;SDS011;20564;42.902;25.336;2023-01-28T12:18:44;1.33;;;0.80;;
34296;SDS011;20564;42.902;25.336;2023-01-28T12:27:01;2.17;;;0.70;;
34296;SDS011;20564;42.902;25.336;2023-01-28T12:29:40;3.53;;;1.38;;
34296;SDS011;20564;42.902;25.336;2023-01-28T12:32:30;3.75;;;1.67;;
34296;SDS011;20564;42.902;25.336;2023-01-28T12:35:28;5.25;;;2.13;;
34296;SDS011;20564;42.902;25.336;2023-01-28T12:38:43;4.72;;;1.65;;
34296;SDS011;20564;42.902;25.336;2023-01-28T12:41:19;2.20;;;0.63;;
34296;SDS011;20564;42.902;25.336;2023-01-28T12:44:01;3.70;;;0.98;;
34296;SDS011;20564;42.902;25.336;2023-01-28T12:49:15;1.85;;;0.60;;
34296;SDS011;20564;42.902;25.336;2023-01-28T12:52:17;0.93;;;0.30;;
34296;SDS011;20564;42.902;25.336;2023-01-28T12:57:41;2.50;;;0.63;;
34296;SDS011;20564;42.902;25.336;2023-01-28T13:02:56;2.53;;;0.80;;
34296;SDS011;20564;42.902;25.336;2023-01-28T13:05:38;1.48;;;0.68;;
34296;SDS011;20564;42.902;25.336;2023-01-28T13:08:25;5.38;;;0.82;;
34296;SDS011;20564;42.902;25.336;2023-01-28T13:10:54;10.23;;;1.45;;
34296;SDS011;20564;42.902;25.336;2023-01-28T13:13:38;3.22;;;1.13;;
34296;SDS011;20564;42.902;25.336;2023-01-28T13:16:10;5.53;;;1.25;;
34296;SDS011;20564;42.902;25.336;2023-01-28T13:18:41;1.63;;;0.60;;
34296;SDS011;20564;42.902;25.336;2023-01-28T13:24:02;5.53;;;1.20;;
34296;SDS011;20564;42.902;25.336;2023-01-28T13:26:40;2.10;;;1.05;;
34296;SDS011;20564;42.902;25.336;2023-01-28T13:31:42;5.55;;;1.92;;
34296;SDS011;20564;42.902;25.336;2023-01-28T13:37:39;8.43;;;3.20;;
34296;SDS011;20564;42.902;25.336;2023-01-28T13:40:23;18.40;;;5.68;;
34296;SDS011;20564;42.902;25.336;2023-01-28T13:43:03;20.60;;;6.78;;
34296;SDS011;20564;42.902;25.336;2023-01-28T13:45:32;15.85;;;6.47;;
34296;SDS011;20564;42.902;25.336;2023-01-28T13:51:18;8.93;;;2.88;;
34296;SDS011;20564;42.902;25.336;2023-01-28T13:54:13;5.97;;;2.88;;
34296;SDS011;20564;42.902;25.336;2023-01-28T13:59:48;6.72;;;2.47;;
34296;SDS011;20564;42.902;25.336;2023-01-28T14:02:37;7.72;;;1.88;;
34296;SDS011;20564;42.902;25.336;2023-01-28T14:17:56;3.72;;;1.52;;
34296;SDS011;20564;42.902;25.336;2023-01-28T14:20:37;5.88;;;1.70;;
34296;SDS011;20564;42.902;25.336;2023-01-28T14:23:14;4.88;;;1.45;;
34296;SDS011;20564;42.902;25.336;2023-01-28T14:25:53;2.25;;;0.90;;
34296;SDS011;20564;42.902;25.336;2023-01-28T14:31:23;8.15;;;3.53;;
34296;SDS011;20564;42.902;25.336;2023-01-28T14:33:54;6.60;;;3.10;;
34296;SDS011;20564;42.902;25.336;2023-01-28T14:36:30;4.72;;;2.28;;
34296;SDS011;20564;42.902;25.336;2023-01-28T14:39:15;6.95;;;2.72;;
34296;SDS011;20564;42.902;25.336;2023-01-28T14:41:49;4.28;;;1.60;;
34296;SDS011;20564;42.902;25.336;2023-01-28T14:44:40;4.22;;;1.95;;
34296;SDS011;20564;42.902;25.336;2023-01-28T14:56:09;5.18;;;2.25;;
34296;SDS011;20564;42.902;25.336;2023-01-28T14:58:58;3.08;;;1.70;;
34296;SDS011;20564;42.902;25.336;2023-01-28T15:01:41;6.53;;;2.40;;
34296;SDS011;20564;42.902;25.336;2023-01-28T15:04:30;5.20;;;1.60;;
34296;SDS011;20564;42.902;25.336;2023-01-28T15:07:01;4.70;;;1.50;;
34296;SDS011;20564;42.902;25.336;2023-01-28T15:10:23;8.35;;;1.60;;
34296;SDS011;20564;42.902;25.336;2023-01-28T15:13:08;3.28;;;1.58;;
34296;SDS011;20564;42.902;25.336;2023-01-28T15:15:41;3.50;;;1.42;;
34296;SDS011;20564;42.902;25.336;2023-01-28T15:18:16;3.17;;;1.52;;
34296;SDS011;20564;42.902;25.336;2023-01-28T15:20:49;5.43;;;2.38;;
34296;SDS011;20564;42.902;25.336;2023-01-28T15:23:21;3.72;;;1.45;;
34296;SDS011;20564;42.902;25.336;2023-01-28T15:25:57;3.65;;;1.10;;
34296;SDS011;20564;42.902;25.336;2023-01-28T15:28:29;2.58;;;0.95;;
34296;SDS011;20564;42.902;25.336;2023-01-28T15:30:58;4.10;;;1.27;;
34296;SDS011;20564;42.902;25.336;2023-01-28T15:33:25;3.30;;;0.90;;
34296;SDS011;20564;42.902;25.336;2023-01-28T15:35:54;2.33;;;0.93;;
34296;SDS011;20564;42.902;25.336;2023-01-28T15:38:23;2.03;;;0.82;;
34296;SDS011;20564;42.902;25.336;2023-01-28T15:40:53;2.40;;;1.08;;
34296;SDS011;20564;42.902;25.336;2023-01-28T15:43:35;3.58;;;1.05;;
34296;SDS011;20564;42.902;25.336;2023-01-28T15:46:10;3.28;;;1.15;;
34296;SDS011;20564;42.902;25.336;2023-01-28T15:48:48;3.95;;;1.73;;
34296;SDS011;20564;42.902;25.336;2023-01-28T15:51:31;5.05;;;1.40;;
34296;SDS011;20564;42.902;25.336;2023-01-28T15:54:05;1.48;;;0.80;;
34296;SDS011;20564;42.902;25.336;2023-01-28T15:56:34;2.85;;;0.80;;
34296;SDS011;20564;42.902;25.336;2023-01-28T16:01:42;1.17;;;0.60;;
34296;SDS011;20564;42.902;25.336;2023-01-28T16:04:23;0.90;;;0.50;;
34296;SDS011;20564;42.902;25.336;2023-01-28T16:06:55;1.27;;;0.73;;
34296;SDS011;20564;42.902;25.336;2023-01-28T16:09:26;1.95;;;0.82;;
34296;SDS011;20564;42.902;25.336;2023-01-28T16:12:02;2.95;;;0.80;;
34296;SDS011;20564;42.902;25.336;2023-01-28T16:17:04;2.80;;;0.70;;
34296;SDS011;20564;42.902;25.336;2023-01-28T16:19:35;1.85;;;0.60;;
34296;SDS011;20564;42.902;25.336;2023-01-28T16:22:07;2.53;;;0.90;;
34296;SDS011;20564;42.902;25.336;2023-01-28T16:24:51;2.72;;;1.20;;
34296;SDS011;20564;42.902;25.336;2023-01-28T16:27:21;0.98;;;0.40;;
34296;SDS011;20564;42.902;25.336;2023-01-28T16:29:49;7.93;;;1.60;;
34296;SDS011;20564;42.902;25.336;2023-01-28T16:35:01;3.80;;;1.50;;
34296;SDS011;20564;42.902;25.336;2023-01-28T16:37:30;2.30;;;1.10;;
34296;SDS011;20564;42.902;25.336;2023-01-28T16:39:57;3.97;;;1.13;;
34296;SDS011;20564;42.902;25.336;2023-01-28T16:42:27;1.80;;;0.90;;
34296;SDS011;20564;42.902;25.336;2023-01-28T16:44:56;3.83;;;1.58;;
34296;SDS011;20564;42.902;25.336;2023-01-28T16:47:24;2.40;;;0.70;;
34296;SDS011;20564;42.902;25.336;2023-01-28T16:49:52;2.53;;;1.02;;
34296;SDS011;20564;42.902;25.336;2023-01-28T16:52:19;2.78;;;1.65;;
34296;SDS011;20564;42.902;25.336;2023-01-28T16:54:47;2.63;;;1.30;;
34296;SDS011;20564;42.902;25.336;2023-01-28T16:57:26;4.03;;;2.00;;
34296;SDS011;20564;42.902;25.336;2023-01-28T16:59:57;3.15;;;1.45;;
34296;SDS011;20564;42.902;25.336;2023-01-28T17:02:24;6.03;;;2.50;;
34296;SDS011;20564;42.902;25.336;2023-01-28T17:04:52;6.85;;;2.13;;
34296;SDS011;20564;42.902;25.336;2023-01-28T17:07:20;4.95;;;2.00;;
34296;SDS011;20564;42.902;25.336;2023-01-28T17:09:51;6.93;;;2.70;;
34296;SDS011;20564;42.902;25.336;2023-01-28T17:12:18;7.97;;;3.53;;
34296;SDS011;20564;42.902;25.336;2023-01-28T17:14:46;9.38;;;4.70;;
34296;SDS011;20564;42.902;25.336;2023-01-28T17:19:41;13.52;;;6.15;;
34296;SDS011;20564;42.902;25.336;2023-01-28T17:22:09;12.82;;;4.95;;
34296;SDS011;20564;42.902;25.336;2023-01-28T17:24:36;11.15;;;3.92;;
34296;SDS011;20564;42.902;25.336;2023-01-28T17:27:04;8.85;;;3.78;;
34296;SDS011;20564;42.902;25.336;2023-01-28T17:29:31;9.68;;;4.53;;
34296;SDS011;20564;42.902;25.336;2023-01-28T17:31:59;10.43;;;3.97;;
34296;SDS011;20564;42.902;25.336;2023-01-28T17:34:27;11.52;;;5.57;;
34296;SDS011;20564;42.902;25.336;2023-01-28T17:36:55;8.73;;;3.83;;